createdAt,value
2019-06-10T07:07:43.147Z,6.67
2019-06-10T07:10:12.259Z,6.83
2019-06-10T07:12:44.039Z,7.10
2019-06-10T07:15:14.426Z,6.70
2019-06-10T07:17:45.524Z,7.17
2019-06-10T07:20:14.720Z,6.80
2019-06-10T07:22:46.653Z,7.20
2019-06-10T07:25:14.824Z,7.12
2019-06-10T07:27:46.455Z,6.67
2019-06-10T07:30:15.327Z,7.25
2019-06-10T07:32:47.149Z,6.40
2019-06-10T07:35:15.049Z,7.30
2019-06-10T07:37:45.878Z,6.80
2019-06-10T07:40:15.330Z,7.03
2019-06-10T07:42:45.451Z,7.28
2019-06-10T07:45:15.056Z,6.72
2019-06-10T07:47:45.655Z,7.25
2019-06-10T07:50:15.714Z,7.58
2019-06-10T07:52:46.685Z,7.40
2019-06-10T07:55:16.472Z,7.28
2019-06-10T07:57:46.470Z,8.00
2019-06-10T08:00:19.653Z,7.60
2019-06-10T08:02:48.628Z,7.55
2019-06-10T08:05:17.703Z,7.67
2019-06-10T08:07:48.815Z,6.75
2019-06-10T08:10:17.981Z,7.92
2019-06-10T08:12:48.343Z,7.97
2019-06-10T08:15:17.771Z,7.75
2019-06-10T08:17:48.146Z,8.00
2019-06-10T08:20:19.167Z,7.70
2019-06-10T08:22:52.508Z,7.58
2019-06-10T08:25:18.995Z,7.50
2019-06-10T08:27:49.362Z,8.15
2019-06-10T08:30:23.950Z,7.40
2019-06-10T08:32:53.339Z,7.60
2019-06-10T08:35:35.845Z,7.65
2019-06-10T08:37:52.945Z,7.42
2019-06-10T08:40:22.923Z,7.78
2019-06-10T08:42:53.764Z,7.58
2019-06-10T08:45:23.515Z,7.60
2019-06-10T08:47:54.256Z,7.85
2019-06-10T08:50:24.845Z,7.28
2019-06-10T08:53:10.417Z,7.33
2019-06-10T08:55:25.657Z,7.25
2019-06-10T08:57:54.715Z,6.47
2019-06-10T09:00:25.617Z,7.20
2019-06-10T09:02:54.844Z,8.25
2019-06-10T09:05:24.108Z,7.53
2019-06-10T09:07:54.490Z,6.55
2019-06-10T09:10:24.190Z,7.70
2019-06-10T09:12:54.640Z,6.80
2019-06-10T09:15:24.098Z,7.17
2019-06-10T09:17:56.125Z,6.75
2019-06-10T09:20:24.405Z,7.35
2019-06-10T09:23:13.312Z,7.60
2019-06-10T09:25:24.350Z,7.83
2019-06-10T09:27:54.765Z,7.12
2019-06-10T09:30:26.112Z,7.15
2019-06-10T09:32:56.802Z,7.55
2019-06-10T09:35:26.216Z,7.25
2019-06-10T09:37:55.923Z,7.53
2019-06-10T09:40:27.860Z,7.95
2019-06-10T09:42:57.225Z,8.60
2019-06-10T09:45:26.601Z,8.08
2019-06-10T09:47:59.956Z,8.35
2019-06-10T09:50:47.037Z,8.38
2019-06-10T09:53:26.667Z,8.50
2019-06-10T09:55:49.131Z,9.20
2019-06-10T09:58:16.827Z,8.58
2019-06-10T10:00:56.777Z,8.35
2019-06-10T10:03:23.926Z,9.08
2019-06-10T10:06:06.439Z,9.38
2019-06-10T10:08:23.972Z,10.15
2019-06-10T10:10:58.478Z,8.60
2019-06-10T10:13:23.463Z,9.55
2019-06-10T10:15:54.365Z,10.82
2019-06-10T10:18:23.940Z,9.68
2019-06-10T10:20:58.390Z,10.45
2019-06-10T10:23:23.681Z,9.58
2019-06-10T10:25:56.912Z,10.03
2019-06-10T10:28:26.387Z,9.75
2019-06-10T10:30:57.590Z,10.43
2019-06-10T10:33:29.017Z,10.18
2019-06-10T10:35:55.140Z,10.18
2019-06-10T10:38:24.554Z,10.32
2019-06-10T10:40:58.472Z,10.32
2019-06-10T10:43:32.733Z,9.63
2019-06-10T10:46:00.125Z,9.25
2019-06-10T10:48:26.181Z,10.10
2019-06-10T10:50:56.104Z,9.40
2019-06-10T10:53:26.431Z,9.80
2019-06-10T10:55:55.460Z,9.98
2019-06-10T10:58:24.865Z,10.40
2019-06-10T11:00:56.783Z,11.40
2019-06-10T11:03:24.744Z,11.35
2019-06-10T11:06:00.535Z,10.53
2019-06-10T11:08:24.586Z,9.90
2019-06-10T11:10:57.818Z,10.32
2019-06-10T11:13:27.304Z,9.88
2019-06-10T11:15:58.339Z,10.85
2019-06-10T11:18:27.780Z,10.75
2019-06-10T11:21:01.515Z,11.22
2019-06-10T11:23:27.729Z,11.15
2019-06-10T11:25:57.520Z,11.15
2019-06-10T11:28:27.549Z,11.30
2019-06-10T11:30:58.248Z,11.00
2019-06-10T11:33:27.879Z,11.95
2019-06-10T11:35:58.118Z,11.60
2019-06-10T11:38:27.464Z,11.57
2019-06-10T11:40:59.824Z,11.12
2019-06-10T11:43:27.323Z,10.90
2019-06-10T11:46:03.009Z,11.43
2019-06-10T11:48:27.141Z,11.22
2019-06-10T11:50:58.902Z,11.88
2019-06-10T11:53:28.695Z,12.05
2019-06-10T11:55:57.993Z,12.00
2019-06-10T11:58:27.473Z,12.33
2019-06-10T12:00:58.759Z,11.95
2019-06-10T12:03:27.249Z,12.88
2019-06-10T12:05:59.370Z,12.05
2019-06-10T12:08:26.830Z,12.23
2019-06-10T12:10:59.070Z,12.45
2019-06-10T12:13:26.675Z,12.07
2019-06-10T12:18:26.802Z,11.70
2019-06-10T12:20:59.461Z,11.63
2019-06-10T12:23:26.545Z,11.05
2019-06-10T12:25:57.540Z,11.28
2019-06-10T12:28:26.294Z,12.70
2019-06-10T12:30:58.274Z,11.22
2019-06-10T12:33:25.953Z,11.20
2019-06-10T12:35:58.541Z,11.78
2019-06-10T12:38:26.026Z,11.68
2019-06-10T12:40:58.273Z,10.38
2019-06-10T12:43:25.996Z,10.60
2019-06-10T12:45:57.168Z,10.98
2019-06-10T12:48:25.860Z,10.35
2019-06-10T12:50:57.326Z,10.65
2019-06-10T12:53:25.390Z,10.95
2019-06-10T12:55:55.857Z,11.10
2019-06-10T12:58:25.375Z,10.00
2019-06-10T13:00:55.431Z,10.15
2019-06-10T13:03:24.647Z,10.05
2019-06-10T13:05:53.695Z,9.58
2019-06-10T13:08:23.931Z,10.00
2019-06-10T13:10:53.543Z,10.45
2019-06-10T13:13:22.871Z,9.60
2019-06-10T13:15:53.205Z,9.40
2019-06-10T13:18:23.794Z,9.20
2019-06-10T13:20:54.066Z,9.18
2019-06-10T13:23:28.544Z,9.25
2019-06-10T13:25:58.764Z,9.73
2019-06-10T13:28:24.835Z,10.18
2019-06-10T13:30:54.713Z,10.95
2019-06-10T13:33:24.431Z,10.63
2019-06-10T13:35:53.883Z,10.90
2019-06-10T13:38:25.751Z,10.38
2019-06-10T13:40:54.340Z,10.38
2019-06-10T13:43:23.463Z,11.73
2019-06-10T13:45:53.184Z,10.10
2019-06-10T13:48:23.301Z,11.63
2019-06-10T13:50:53.796Z,10.50
2019-06-10T13:53:23.160Z,10.15
2019-06-10T13:56:08.443Z,10.58
2019-06-10T13:58:25.087Z,10.40
2019-06-10T14:00:54.615Z,10.60
2019-06-10T14:03:23.655Z,10.38
2019-06-10T14:05:58.493Z,9.95
2019-06-10T14:08:23.460Z,9.65
2019-06-10T14:10:54.872Z,9.30
2019-06-10T14:13:24.296Z,10.20
2019-06-10T14:15:56.411Z,10.18
2019-06-10T14:18:28.222Z,10.05
2019-06-10T14:20:58.449Z,10.03
2019-06-10T14:23:28.618Z,10.35
2019-06-10T14:25:58.750Z,9.20
2019-06-10T14:28:39.757Z,9.95
2019-06-10T14:31:38.614Z,9.48
2019-06-10T14:33:47.955Z,10.20
2019-06-10T14:36:17.091Z,9.85
2019-06-10T14:38:46.191Z,9.33
2019-06-10T14:41:15.126Z,9.05
2019-06-10T14:43:44.196Z,9.60
2019-06-10T14:46:15.793Z,9.80
2019-06-10T14:48:43.860Z,9.50
2019-06-10T14:51:15.779Z,8.58
2019-06-10T14:53:43.548Z,8.90
2019-06-10T14:56:16.492Z,8.73
2019-06-10T14:58:47.248Z,8.95
2019-06-10T15:01:24.406Z,8.63
2019-06-10T15:03:47.140Z,9.48
2019-06-10T15:06:16.480Z,9.55
2019-06-10T15:08:45.507Z,9.08
2019-06-10T15:11:15.791Z,9.08
2019-06-10T15:13:45.243Z,8.40
2019-06-10T15:16:14.301Z,8.88
2019-06-10T15:18:44.352Z,8.78
2019-06-10T15:21:13.395Z,8.68
2019-06-10T15:23:44.931Z,9.20
2019-06-10T15:26:16.038Z,8.93
2019-06-10T15:28:44.840Z,8.95
2019-06-10T15:31:16.300Z,9.30
2019-06-10T15:33:44.452Z,8.40
2019-06-10T15:36:13.500Z,8.88
2019-06-10T15:38:44.070Z,8.68
2019-06-10T15:41:16.547Z,9.33
2019-06-10T15:43:43.896Z,8.93
2019-06-10T15:46:14.532Z,9.40
2019-06-10T15:48:45.650Z,8.40
2019-06-10T15:51:17.485Z,8.95
2019-06-10T15:53:45.299Z,8.63
2019-06-10T15:56:28.660Z,8.78
2019-06-10T15:58:47.001Z,8.73
2019-06-10T16:01:20.097Z,8.88
2019-06-10T16:03:47.465Z,9.13
2019-06-10T16:06:16.529Z,8.80
2019-06-10T16:08:45.436Z,9.23
2019-06-10T16:11:18.317Z,9.75
2019-06-10T16:13:46.066Z,9.68
2019-06-10T16:16:14.997Z,9.40
2019-06-10T16:18:44.075Z,10.30
2019-06-10T16:21:15.643Z,9.80
2019-06-10T16:23:44.587Z,10.28
2019-06-10T16:26:14.879Z,10.05
2019-06-10T16:28:44.857Z,9.83
2019-06-10T16:31:15.241Z,10.20
2019-06-10T16:33:49.117Z,10.58
2019-06-10T16:36:15.024Z,9.83
2019-06-10T16:38:44.005Z,9.40
2019-06-10T16:41:13.592Z,10.50
2019-06-10T16:43:43.009Z,10.95
2019-06-10T16:46:12.197Z,10.40
2019-06-10T16:48:44.991Z,10.48
2019-06-10T16:51:14.127Z,10.23
2019-06-10T16:53:43.302Z,10.45
2019-06-10T16:56:14.436Z,10.68
2019-06-10T16:58:43.465Z,10.50
2019-06-10T17:01:12.705Z,10.58
2019-06-10T17:03:42.483Z,9.73
2019-06-10T17:06:13.067Z,9.98
2019-06-10T17:08:42.833Z,9.35
2019-06-10T17:11:12.429Z,9.13
2019-06-10T17:13:42.469Z,9.68
2019-06-10T17:16:12.725Z,9.15
2019-06-10T17:18:42.527Z,10.30
2019-06-10T17:21:13.218Z,9.40
2019-06-10T17:23:43.314Z,9.75
2019-06-10T17:26:12.745Z,9.20
2019-06-10T17:28:42.933Z,8.90
2019-06-10T17:31:12.871Z,9.48
2019-06-10T17:33:42.875Z,9.00
2019-06-10T17:36:12.692Z,9.25
2019-06-10T17:38:42.938Z,9.95
2019-06-10T17:41:13.335Z,9.18
2019-06-10T17:43:42.993Z,8.63
2019-06-10T17:46:13.728Z,8.88
2019-06-10T17:48:43.227Z,9.60
2019-06-10T17:51:12.271Z,8.98
2019-06-10T17:53:42.682Z,8.77
2019-06-10T17:56:13.304Z,8.70
2019-06-10T17:58:51.646Z,9.43
2019-06-10T18:01:13.968Z,9.20
2019-06-10T18:03:44.952Z,8.88
2019-06-10T18:06:15.287Z,9.37
2019-06-10T18:08:44.421Z,8.87
2019-06-10T18:11:13.497Z,8.95
2019-06-10T18:13:43.064Z,9.83
2019-06-10T18:16:13.104Z,9.40
2019-06-10T18:18:42.868Z,8.88
2019-06-10T18:21:12.719Z,9.73
2019-06-10T18:23:43.437Z,9.73
2019-06-10T18:26:12.796Z,8.98
2019-06-10T18:28:57.925Z,9.00
2019-06-10T18:31:12.285Z,9.10
2019-06-10T18:33:42.456Z,8.67
2019-06-10T18:36:12.283Z,8.93
2019-06-10T18:38:43.377Z,8.80
2019-06-10T18:41:14.875Z,9.23
2019-06-10T18:43:43.871Z,9.43
2019-06-10T18:46:12.930Z,9.63
2019-06-10T18:48:43.144Z,9.40
2019-06-10T18:51:12.702Z,9.13
2019-06-10T18:53:42.837Z,9.23
2019-06-10T18:56:12.837Z,8.70
2019-06-10T18:58:42.685Z,9.40
2019-06-10T19:01:12.590Z,9.97
2019-06-10T19:03:42.936Z,9.30
2019-06-10T19:06:12.697Z,8.93
2019-06-10T19:08:44.353Z,8.80
2019-06-10T19:11:12.252Z,9.07
2019-06-10T19:13:43.540Z,8.40
2019-06-10T19:16:12.899Z,9.00
2019-06-10T19:18:43.206Z,9.00
2019-06-10T19:21:13.000Z,9.37
2019-06-10T19:23:43.903Z,9.20
2019-06-10T19:26:13.381Z,8.73
2019-06-10T19:28:45.209Z,9.00
2019-06-10T19:31:14.564Z,9.17
2019-06-10T19:33:45.021Z,9.00
2019-06-10T19:36:14.595Z,8.73
2019-06-10T19:38:44.364Z,9.23
2019-06-10T19:41:14.079Z,8.80
2019-06-10T19:43:45.250Z,9.13
2019-06-10T19:46:13.845Z,8.50
2019-06-10T19:48:56.190Z,8.50
2019-06-10T19:51:13.579Z,7.77
2019-06-10T19:53:44.953Z,8.83
2019-06-10T19:56:13.391Z,8.10
2019-06-10T19:58:44.445Z,8.63
2019-06-10T20:01:13.481Z,8.87
2019-06-10T20:03:46.519Z,8.63
2019-06-10T20:06:15.641Z,8.30
2019-06-10T20:08:46.126Z,9.00
2019-06-10T20:11:15.361Z,8.57
2019-06-10T20:13:46.627Z,8.90
2019-06-10T20:16:14.879Z,8.70
2019-06-10T20:18:47.598Z,8.60
2019-06-10T20:21:15.405Z,8.60
2019-06-10T20:23:45.776Z,8.63
2019-06-10T20:26:15.199Z,8.07
2019-06-10T20:28:48.710Z,8.13
2019-06-10T20:31:16.247Z,7.90
2019-06-10T20:33:45.308Z,8.50
2019-06-10T20:36:21.900Z,8.20
2019-06-10T20:38:47.266Z,8.40
2019-06-10T20:41:15.924Z,8.23
2019-06-10T20:43:47.174Z,8.37
2019-06-10T20:46:15.424Z,8.97
2019-06-10T20:48:47.465Z,8.53
2019-06-10T20:51:15.480Z,8.37
2019-06-10T20:53:46.001Z,9.30
2019-06-10T20:56:16.260Z,9.07
2019-06-10T20:58:46.484Z,8.30
2019-06-10T21:01:16.055Z,8.43
2019-06-10T21:03:47.528Z,7.93
2019-06-10T21:06:16.457Z,8.23
2019-06-10T21:08:48.078Z,8.93
2019-06-10T21:11:16.422Z,8.73
2019-06-10T21:13:48.646Z,8.50
2019-06-10T21:16:16.072Z,9.33
2019-06-10T21:18:50.409Z,8.77
2019-06-10T21:21:22.439Z,9.17
2019-06-10T21:23:51.741Z,8.57
2019-06-10T21:26:23.417Z,9.03
2019-06-10T21:28:55.191Z,8.43
2019-06-10T21:31:23.332Z,9.07
2019-06-10T21:33:55.646Z,8.90
2019-06-10T21:36:23.099Z,8.67
2019-06-10T21:38:55.790Z,9.10
2019-06-10T21:41:22.884Z,9.63
2019-06-10T21:43:58.696Z,9.43
2019-06-10T21:46:22.886Z,8.73
2019-06-10T21:48:53.194Z,8.93
2019-06-10T21:51:22.966Z,8.97
2019-06-10T21:53:53.753Z,8.37
2019-06-10T21:56:23.630Z,9.10
2019-06-10T21:58:54.165Z,8.77
2019-06-10T22:01:23.809Z,8.93
2019-06-10T22:04:00.566Z,8.37
2019-06-10T22:06:23.989Z,8.90
2019-06-10T22:08:55.002Z,8.70
2019-06-10T22:11:23.670Z,8.83
2019-06-10T22:13:54.375Z,9.33
2019-06-10T22:16:23.957Z,9.17
2019-06-10T22:18:54.963Z,8.93
2019-06-10T22:21:24.337Z,8.70
2019-06-10T22:23:55.326Z,9.07
2019-06-10T22:26:24.235Z,9.30
2019-06-10T22:28:55.802Z,9.53
2019-06-10T22:31:26.397Z,9.57
2019-06-10T22:33:56.270Z,9.10
2019-06-10T22:36:25.948Z,9.40
2019-06-10T22:38:57.736Z,9.77
2019-06-10T22:41:26.660Z,9.23
2019-06-10T22:43:57.431Z,10.27
2019-06-10T22:46:26.416Z,9.30
2019-06-10T22:48:56.471Z,9.90
2019-06-10T22:51:27.947Z,9.93
2019-06-10T22:53:58.579Z,9.30
2019-06-10T22:56:27.807Z,9.80
2019-06-10T22:58:57.381Z,10.03
2019-06-10T23:01:33.825Z,9.77
2019-06-10T23:03:58.023Z,9.47
2019-06-10T23:06:27.165Z,9.60
2019-06-10T23:08:57.696Z,9.00
2019-06-10T23:11:27.135Z,10.00
2019-06-10T23:13:56.866Z,9.83
2019-06-10T23:16:28.771Z,10.20
2019-06-10T23:18:58.415Z,10.13
2019-06-10T23:21:30.595Z,9.27
2019-06-10T23:24:00.847Z,10.07
2019-06-10T23:26:30.310Z,10.23
2019-06-10T23:29:00.239Z,10.43
2019-06-10T23:31:29.566Z,10.30
2019-06-10T23:33:58.471Z,10.40
2019-06-10T23:36:29.700Z,10.60
2019-06-10T23:38:58.976Z,10.47
2019-06-10T23:41:28.126Z,10.90
2019-06-10T23:43:57.606Z,10.27
2019-06-10T23:46:27.376Z,9.93
2019-06-10T23:48:57.471Z,10.57
2019-06-10T23:51:27.290Z,11.43
2019-06-10T23:53:58.392Z,10.77
2019-06-10T23:56:27.148Z,10.13
2019-06-10T23:58:57.498Z,10.83
